Terminal Aerodrome Forecast
Issued by NWS Pittsburgh, PA

Current Version | Previous Version | Graphics & Text | Print | Product List | Glossary On
Versions: 1 2 3 4 5 6 7 8 9 10 11 12 13 14 15 16 17 18 19 20 21 22 23 24 25 26 27 28 29 30 31
053
FTUS41 KPBZ 302057 AAA
TAFPIT
TAF AMD
KPIT 302057Z 3021/0124 21007KT P6SM VCSH OVC015
      TEMPO 3021/3023 SCT015 BKN050
     FM010200 28015G26KT P6SM VCSH BKN020
     FM010400 25008G16KT P6SM VCSH BKN045
     FM010900 25008KT P6SM BKN030
     FM011900 25011G20KT P6SM BKN035=

USA.gov is the U.S. government's official web portal to all federal, state and local government web resources and services.